Time;durP1;ratioP1;P1;durP2;ratioP2;P2;SDS_P1;SDS_P2;PMS_P1;PMS_P2;Temp;Humidity;BMP_temperature;BMP_pressure;BME280_temperature;BME280_humidity;BME280_pressure;Samples;Min_cycle;Max_cycle;Signal;HPM_P1;HPM_P2
2024/01/04 00:00:35;;;;;;;2.42;0.40;;;6.30;99.90;;;;;;4962658;28;20043;-88
2024/01/04 00:03:01;;;;;;;0.65;0.20;;;6.30;99.90;;;;;;4942459;28;20417;-88
2024/01/04 00:05:27;;;;;;;1.15;0.40;;;6.30;99.90;;;;;;4939676;28;20471;-88
2024/01/04 00:07:52;;;;;;;0.40;0.40;;;6.30;99.90;;;;;;4964848;28;20037;-88
2024/01/04 00:10:18;;;;;;;1.95;0.30;;;6.30;99.90;;;;;;4955873;28;20032;-88
2024/01/04 00:12:51;;;;;;;2.25;0.30;;;6.30;99.90;;;;;;4926135;28;20069;-88
2024/01/04 00:15:17;;;;;;;0.20;0.20;;;6.20;99.90;;;;;;4928826;28;20035;-88
2024/01/04 00:17:43;;;;;;;8.60;0.68;;;6.20;99.90;;;;;;4930985;28;20117;-88
2024/01/04 00:20:09;;;;;;;0.20;0.10;;;6.20;99.90;;;;;;4923243;28;20084;-88
2024/01/04 00:22:36;;;;;;;0.25;0.20;;;6.20;99.90;;;;;;4932394;29;20118;-89
2024/01/04 00:25:02;;;;;;;2.10;0.50;;;6.20;99.90;;;;;;4934064;28;20480;-88
2024/01/04 00:27:28;;;;;;;1.25;0.30;;;6.20;99.90;;;;;;4941128;29;20027;-87
2024/01/04 00:29:54;;;;;;;0.40;0.32;;;6.20;99.90;;;;;;4929707;29;20034;-88
2024/01/04 00:32:19;;;;;;;1.98;0.30;;;6.20;99.90;;;;;;4947932;28;20506;-88
2024/01/04 00:34:45;;;;;;;0.60;0.25;;;6.20;99.90;;;;;;4923449;29;20118;-87
2024/01/04 00:37:11;;;;;;;0.35;0.30;;;6.20;99.90;;;;;;4963746;28;20022;-88
2024/01/04 00:39:37;;;;;;;2.17;0.40;;;6.20;99.90;;;;;;4930160;29;20039;-87
2024/01/04 00:42:03;;;;;;;0.55;0.40;;;6.20;99.90;;;;;;4924073;29;20062;-88
2024/01/04 00:44:28;;;;;;;13.63;0.98;;;6.20;99.90;;;;;;4946818;28;20023;-88
2024/01/04 00:46:54;;;;;;;2.00;0.70;;;6.20;99.90;;;;;;4967504;28;20093;-88
2024/01/04 00:49:20;;;;;;;1.05;0.50;;;6.30;99.90;;;;;;4923953;28;20041;-88
2024/01/04 00:51:47;;;;;;;4.47;0.60;;;6.30;99.90;;;;;;4963008;28;20031;-88
2024/01/04 00:54:13;;;;;;;2.00;0.70;;;6.30;99.90;;;;;;4940797;28;20069;-88
2024/01/04 00:56:39;;;;;;;2.97;0.60;;;6.30;99.90;;;;;;4934376;29;20500;-87
2024/01/04 00:59:05;;;;;;;6.65;0.85;;;6.30;99.90;;;;;;4924023;29;20043;-87
2024/01/04 01:01:34;;;;;;;6.28;0.60;;;6.30;99.90;;;;;;4942067;28;20034;-89
2024/01/04 01:04:01;;;;;;;1.42;0.45;;;6.30;99.90;;;;;;4931834;29;20042;-88
2024/01/04 01:06:26;;;;;;;2.15;0.70;;;6.30;99.90;;;;;;4938379;29;20035;-88
2024/01/04 01:08:52;;;;;;;1.75;0.55;;;6.30;99.90;;;;;;4932452;29;20082;-89
2024/01/04 01:11:18;;;;;;;3.65;0.50;;;6.30;99.90;;;;;;4957175;28;20479;-88
2024/01/04 01:13:44;;;;;;;2.00;0.50;;;6.30;99.90;;;;;;4935493;29;20491;-88
2024/01/04 01:16:10;;;;;;;2.65;0.95;;;6.30;99.90;;;;;;4925749;28;20039;-88
2024/01/04 01:18:38;;;;;;;3.05;0.98;;;6.30;99.90;;;;;;4935149;29;20090;-89
2024/01/04 01:21:04;;;;;;;2.38;0.88;;;6.30;99.90;;;;;;4964094;28;20086;-89
2024/01/04 01:23:30;;;;;;;2.80;0.70;;;6.30;99.90;;;;;;4949934;28;20170;-88
2024/01/04 01:25:55;;;;;;;2.50;0.47;;;6.30;99.90;;;;;;4958746;28;20035;-88
2024/01/04 01:28:21;;;;;;;11.80;1.20;;;6.30;99.90;;;;;;4947330;28;20042;-88
2024/01/04 01:30:47;;;;;;;1.90;0.80;;;6.40;99.90;;;;;;4920297;29;20042;-88
2024/01/04 01:33:13;;;;;;;3.58;0.40;;;6.30;99.90;;;;;;4924839;28;20054;-89
2024/01/04 01:35:38;;;;;;;2.33;0.40;;;6.30;99.90;;;;;;4940097;29;20039;-89
2024/01/04 01:38:04;;;;;;;0.90;0.40;;;6.30;99.90;;;;;;4925836;28;20073;-89
2024/01/04 01:40:30;;;;;;;3.20;0.50;;;6.30;99.90;;;;;;4923911;28;20656;-88
2024/01/04 01:42:56;;;;;;;5.18;1.08;;;6.30;99.90;;;;;;4906099;28;20035;-89
2024/01/04 01:45:22;;;;;;;3.97;0.63;;;6.30;99.90;;;;;;4945511;28;20046;-88
2024/01/04 01:47:48;;;;;;;5.03;0.80;;;6.30;99.90;;;;;;4938871;29;20040;-89
2024/01/04 01:50:16;;;;;;;1.83;0.50;;;6.30;99.90;;;;;;4964000;28;20035;-88
2024/01/04 01:52:43;;;;;;;3.17;0.52;;;6.30;99.90;;;;;;4961700;28;20031;-88
2024/01/04 01:55:10;;;;;;;3.78;0.50;;;6.30;99.90;;;;;;4921159;29;20035;-88
2024/01/04 01:57:36;;;;;;;1.90;0.70;;;6.30;99.90;;;;;;4922663;29;20484;-88
2024/01/04 02:00:06;;;;;;;2.17;0.40;;;6.30;99.90;;;;;;4939163;29;20046;-88
2024/01/04 02:02:48;;;;;;;1.85;0.60;;;6.30;99.90;;;;;;4940364;29;20074;-89
2024/01/04 02:05:15;;;;;;;5.05;0.75;;;6.30;99.90;;;;;;4938330;28;20034;-88
2024/01/04 02:07:43;;;;;;;2.70;0.50;;;6.30;99.90;;;;;;4955307;28;20407;-88
2024/01/04 02:10:09;;;;;;;2.40;0.40;;;6.30;99.90;;;;;;4945201;28;20034;-89
2024/01/04 02:12:35;;;;;;;3.72;0.45;;;6.30;99.90;;;;;;4934529;28;20506;-88
2024/01/04 02:15:00;;;;;;;1.60;0.40;;;6.20;99.90;;;;;;4946030;28;20031;-88
2024/01/04 02:17:28;;;;;;;1.75;0.40;;;6.20;99.90;;;;;;4941360;28;20110;-89
2024/01/04 02:19:57;;;;;;;6.38;0.57;;;6.20;99.90;;;;;;4963158;28;20035;-89
2024/01/04 02:22:22;;;;;;;1.73;0.43;;;6.20;99.90;;;;;;4954316;28;20502;-88
2024/01/04 02:24:48;;;;;;;0.40;0.30;;;6.20;99.90;;;;;;4920566;29;20035;-89
2024/01/04 02:27:15;;;;;;;2.05;0.40;;;6.20;99.90;;;;;;4922749;29;20039;-88
2024/01/04 02:29:41;;;;;;;2.53;0.75;;;6.20;99.90;;;;;;4930654;29;20035;-88
2024/01/04 02:32:07;;;;;;;3.03;0.65;;;6.20;99.90;;;;;;4939412;29;20495;-88
2024/01/04 02:34:33;;;;;;;5.30;0.55;;;6.20;99.90;;;;;;4953829;28;20130;-88
2024/01/04 02:36:59;;;;;;;2.97;0.63;;;6.20;99.90;;;;;;4932892;29;20116;-88
2024/01/04 02:39:25;;;;;;;1.98;0.50;;;6.20;99.90;;;;;;4940212;28;20032;-88
2024/01/04 02:41:51;;;;;;;0.20;0.20;;;6.20;99.90;;;;;;4946477;28;20043;-89
2024/01/04 02:44:16;;;;;;;1.13;0.20;;;6.20;99.90;;;;;;4905704;28;20036;-89
2024/01/04 02:46:43;;;;;;;2.90;0.30;;;6.20;99.90;;;;;;4922361;29;20028;-88
2024/01/04 02:49:08;;;;;;;0.55;0.20;;;6.20;99.90;;;;;;4926888;28;20034;-89
2024/01/04 02:51:34;;;;;;;0.20;0.20;;;6.20;99.90;;;;;;4927539;29;20035;-88
2024/01/04 02:54:00;;;;;;;0.43;0.32;;;6.10;99.90;;;;;;4922906;29;20078;-89
2024/01/04 02:56:26;;;;;;;1.48;0.20;;;6.10;99.90;;;;;;4936488;29;20442;-88
2024/01/04 02:58:53;;;;;;;5.07;0.40;;;6.10;99.90;;;;;;4941261;28;20031;-89
2024/01/04 03:01:22;;;;;;;2.17;0.20;;;6.10;99.90;;;;;;4926928;29;20031;-88
2024/01/04 03:03:51;;;;;;;1.65;0.30;;;6.10;99.90;;;;;;4940558;29;20059;-87
2024/01/04 03:06:27;;;;;;;4.65;0.30;;;6.10;99.90;;;;;;4931024;29;20043;-89
2024/01/04 03:08:53;;;;;;;1.02;0.30;;;6.10;99.90;;;;;;4932184;28;20058;-89
2024/01/04 03:11:19;;;;;;;0.40;0.22;;;6.00;99.90;;;;;;4927770;28;20556;-89
2024/01/04 03:13:46;;;;;;;0.38;0.30;;;6.10;99.90;;;;;;4912988;29;20134;-88
2024/01/04 03:16:13;;;;;;;2.63;0.40;;;6.10;99.90;;;;;;4948457;28;20034;-90
2024/01/04 03:18:39;;;;;;;0.63;0.28;;;6.10;99.90;;;;;;4927324;29;20031;-89
2024/01/04 03:21:05;;;;;;;2.50;0.28;;;6.10;99.90;;;;;;4941344;29;20126;-89
2024/01/04 03:23:31;;;;;;;0.40;0.20;;;6.10;99.90;;;;;;4917057;29;20082;-89
2024/01/04 03:25:57;;;;;;;44.33;2.28;;;6.10;99.90;;;;;;4941532;28;20027;-89
2024/01/04 03:28:23;;;;;;;0.30;0.30;;;6.10;99.90;;;;;;4956726;28;20069;-88
2024/01/04 03:30:48;;;;;;;1.17;0.25;;;6.10;99.90;;;;;;4927902;28;20039;-89
2024/01/04 03:33:14;;;;;;;3.58;0.38;;;6.10;99.90;;;;;;4942896;28;20027;-90
2024/01/04 03:35:40;;;;;;;3.30;0.32;;;6.10;99.90;;;;;;4954550;28;20043;-90
2024/01/04 03:38:06;;;;;;;1.27;0.20;;;6.10;99.90;;;;;;4931430;29;20043;-90
2024/01/04 03:40:32;;;;;;;32.13;1.95;;;6.10;99.90;;;;;;4941549;28;20035;-90
2024/01/04 03:42:58;;;;;;;0.30;0.17;;;6.10;99.90;;;;;;4957217;28;20730;-90
2024/01/04 03:45:24;;;;;;;0.35;0.20;;;6.10;99.90;;;;;;4929955;29;20044;-89
2024/01/04 03:47:50;;;;;;;4.30;0.40;;;6.10;99.90;;;;;;4923116;29;20054;-90
2024/01/04 03:50:16;;;;;;;1.65;0.30;;;6.10;99.90;;;;;;4962350;28;20509;-91
2024/01/04 03:52:41;;;;;;;1.85;0.32;;;6.10;99.90;;;;;;4955261;29;20028;-90
2024/01/04 03:55:08;;;;;;;4.65;0.30;;;6.10;99.90;;;;;;4933671;28;20035;-90
2024/01/04 03:57:33;;;;;;;3.58;0.38;;;6.10;99.90;;;;;;4941439;29;20484;-91
2024/01/04 04:00:01;;;;;;;3.30;0.28;;;6.10;99.90;;;;;;4923405;28;20039;-90
2024/01/04 04:02:27;;;;;;;1.08;0.30;;;6.20;99.90;;;;;;4930130;28;20086;-89
2024/01/04 04:04:56;;;;;;;2.65;0.20;;;6.10;99.90;;;;;;4940889;29;20043;-90
2024/01/04 04:07:23;;;;;;;2.35;0.32;;;6.10;99.90;;;;;;4928667;28;20392;-89
2024/01/04 04:09:49;;;;;;;0.52;0.20;;;6.10;99.90;;;;;;4926066;29;20023;-89
2024/01/04 04:12:15;;;;;;;1.23;0.30;;;6.10;99.90;;;;;;4938856;28;20041;-90
2024/01/04 04:14:41;;;;;;;2.17;0.32;;;6.10;99.90;;;;;;4926380;29;20203;-89
2024/01/04 04:17:07;;;;;;;0.90;0.32;;;6.10;99.90;;;;;;4939315;29;20115;-89
2024/01/04 04:19:33;;;;;;;0.70;0.30;;;6.10;99.90;;;;;;4940525;29;20563;-89
2024/01/04 04:21:59;;;;;;;1.90;0.57;;;6.10;99.90;;;;;;4927863;28;20035;-89
2024/01/04 04:24:25;;;;;;;2.75;0.40;;;6.10;99.90;;;;;;4944241;29;20122;-90
2024/01/04 04:26:50;;;;;;;0.30;0.22;;;6.10;99.90;;;;;;4956190;28;20051;-90
2024/01/04 04:29:16;;;;;;;1.00;0.32;;;6.10;99.90;;;;;;4923441;29;20032;-88
2024/01/04 04:31:42;;;;;;;1.45;0.20;;;6.10;99.90;;;;;;4924893;29;20499;-89
2024/01/04 04:34:08;;;;;;;2.00;0.30;;;6.10;99.90;;;;;;4933960;29;20062;-90
2024/01/04 04:36:34;;;;;;;1.40;0.32;;;6.10;99.90;;;;;;4939864;29;20134;-88
2024/01/04 04:39:02;;;;;;;1.33;0.30;;;6.10;99.90;;;;;;4931671;29;20035;-88
2024/01/04 04:41:28;;;;;;;1.02;0.20;;;6.10;99.90;;;;;;4930882;29;20045;-89
2024/01/04 04:43:54;;;;;;;1.95;0.30;;;6.10;99.90;;;;;;4923718;28;20031;-88
2024/01/04 04:46:24;;;;;;;0.30;0.20;;;6.10;99.90;;;;;;4953899;28;20031;-89
2024/01/04 04:48:54;;;;;;;0.47;0.20;;;6.00;99.90;;;;;;4930434;29;20028;-88
2024/01/04 04:51:25;;;;;;;0.77;0.20;;;6.00;99.90;;;;;;4941448;28;20028;-90
2024/01/04 04:53:51;;;;;;;0.73;0.38;;;6.00;99.90;;;;;;4923727;29;20039;-88
2024/01/04 04:56:17;;;;;;;0.45;0.40;;;6.10;99.90;;;;;;4930782;28;20042;-89
2024/01/04 04:58:43;;;;;;;1.13;0.32;;;6.10;99.90;;;;;;4938025;29;20035;-89
2024/01/04 05:01:09;;;;;;;0.98;0.28;;;6.10;99.90;;;;;;4961506;28;20039;-89
2024/01/04 05:03:36;;;;;;;1.65;0.45;;;6.10;99.90;;;;;;4937430;29;20051;-88
2024/01/04 05:06:02;;;;;;;0.93;0.28;;;6.10;99.90;;;;;;4928696;28;20122;-89
2024/01/04 05:08:29;;;;;;;2.05;0.40;;;6.10;99.90;;;;;;4938259;29;20019;-88
2024/01/04 05:10:55;;;;;;;1.40;0.32;;;6.10;99.90;;;;;;4940199;29;20054;-89
2024/01/04 05:13:21;;;;;;;1.85;0.40;;;6.10;99.90;;;;;;4959742;28;20109;-90
2024/01/04 05:15:47;;;;;;;4.43;0.50;;;6.10;99.90;;;;;;4941844;29;20035;-89
2024/01/04 05:18:13;;;;;;;0.93;0.40;;;6.10;99.90;;;;;;4947171;28;20035;-89
2024/01/04 05:20:40;;;;;;;1.83;0.70;;;6.10;99.90;;;;;;4939652;28;20041;-90
2024/01/04 05:23:07;;;;;;;0.60;0.45;;;6.10;99.90;;;;;;4919556;28;20039;-89
2024/01/04 05:25:33;;;;;;;3.33;0.63;;;6.20;99.90;;;;;;4952093;28;20039;-88
2024/01/04 05:28:17;;;;;;;0.95;0.50;;;6.20;99.90;;;;;;4949942;28;20041;-88
2024/01/04 05:30:43;;;;;;;2.28;0.70;;;6.20;99.90;;;;;;4911723;29;20051;-88
2024/01/04 05:33:09;;;;;;;2.22;0.90;;;6.20;99.90;;;;;;4937662;28;20041;-88
2024/01/04 05:35:34;;;;;;;1.05;0.60;;;6.20;99.90;;;;;;4938295;29;20043;-88
2024/01/04 05:38:00;;;;;;;0.63;0.30;;;6.20;99.90;;;;;;4937120;29;20043;-88
2024/01/04 05:40:26;;;;;;;0.77;0.50;;;6.20;99.90;;;;;;4923491;29;20047;-88
2024/01/04 05:42:55;;;;;;;1.48;0.50;;;6.20;99.90;;;;;;4941251;29;20041;-89
2024/01/04 05:45:21;;;;;;;0.68;0.30;;;6.10;99.90;;;;;;4907836;28;20039;-90
2024/01/04 05:47:47;;;;;;;0.60;0.30;;;6.10;99.90;;;;;;4939109;29;20086;-88
2024/01/04 05:50:13;;;;;;;0.85;0.25;;;6.10;99.90;;;;;;4948639;28;20031;-90
2024/01/04 05:52:39;;;;;;;1.00;0.35;;;6.10;99.90;;;;;;4954089;28;20054;-89
2024/01/04 05:55:05;;;;;;;0.75;0.30;;;6.10;99.90;;;;;;4947660;28;20039;-89
2024/01/04 05:57:31;;;;;;;1.33;0.35;;;6.10;99.90;;;;;;4955226;28;20162;-88
2024/01/04 05:59:57;;;;;;;0.20;0.20;;;6.10;99.90;;;;;;4937298;28;20041;-89
2024/01/04 06:02:26;;;;;;;0.60;0.30;;;6.10;99.90;;;;;;4922643;28;20062;-86
2024/01/04 06:04:52;;;;;;;1.13;0.50;;;6.10;99.90;;;;;;4935769;29;20078;-89
2024/01/04 06:07:18;;;;;;;1.58;0.30;;;6.10;99.90;;;;;;4951720;28;20047;-89
2024/01/04 06:09:44;;;;;;;3.45;0.32;;;6.10;99.90;;;;;;4925812;29;20118;-89
2024/01/04 06:12:10;;;;;;;1.83;0.30;;;6.10;99.90;;;;;;4942699;28;20042;-89
2024/01/04 06:14:36;;;;;;;1.58;0.20;;;6.10;99.90;;;;;;4919050;29;20044;-88
2024/01/04 06:17:02;;;;;;;0.85;0.30;;;6.10;99.90;;;;;;4936759;28;20423;-88
2024/01/04 06:19:28;;;;;;;1.33;0.30;;;6.10;99.90;;;;;;4944431;29;20027;-89
2024/01/04 06:21:54;;;;;;;0.45;0.10;;;6.10;99.90;;;;;;4928109;28;20039;-89
2024/01/04 06:24:20;;;;;;;0.73;0.22;;;6.10;99.90;;;;;;4927879;28;20134;-89
2024/01/04 06:26:46;;;;;;;0.30;0.28;;;6.20;99.90;;;;;;4928989;28;20126;-88
2024/01/04 06:29:11;;;;;;;0.82;0.32;;;6.10;99.90;;;;;;4948064;28;20394;-90
2024/01/04 06:31:37;;;;;;;2.33;0.22;;;6.20;99.90;;;;;;4938662;29;20435;-90
2024/01/04 06:34:03;;;;;;;0.93;0.35;;;6.20;99.90;;;;;;4940550;28;20086;-89
2024/01/04 06:36:29;;;;;;;3.13;0.30;;;6.20;99.90;;;;;;4941153;29;20058;-88
2024/01/04 06:38:54;;;;;;;0.45;0.28;;;6.20;99.90;;;;;;4948684;28;20129;-88
2024/01/04 06:41:23;;;;;;;0.20;0.20;;;6.20;99.90;;;;;;4940828;29;20038;-89
2024/01/04 06:43:49;;;;;;;1.30;0.30;;;6.20;99.90;;;;;;4925080;29;20443;-89
2024/01/04 06:46:15;;;;;;;0.40;0.20;;;6.10;99.90;;;;;;4940610;28;20034;-90
2024/01/04 06:48:41;;;;;;;1.02;0.20;;;6.10;99.90;;;;;;4931867;29;20035;-89
2024/01/04 06:51:07;;;;;;;2.20;0.40;;;6.10;99.90;;;;;;4949785;28;20035;-90
2024/01/04 06:53:33;;;;;;;1.05;0.30;;;6.10;99.90;;;;;;4925070;29;20027;-89
2024/01/04 06:55:59;;;;;;;0.60;0.40;;;6.10;99.90;;;;;;4925007;28;20512;-89
2024/01/04 06:58:24;;;;;;;1.95;0.30;;;6.10;99.90;;;;;;4924767;29;20050;-90
2024/01/04 07:00:52;;;;;;;1.48;0.40;;;6.10;99.90;;;;;;4938511;29;20495;-89
2024/01/04 07:03:19;;;;;;;0.75;0.40;;;6.20;99.90;;;;;;4938943;28;20047;-90
2024/01/04 07:05:46;;;;;;;0.57;0.40;;;6.10;99.90;;;;;;4921682;29;20083;-89
2024/01/04 07:08:12;;;;;;;1.30;0.40;;;6.10;99.90;;;;;;4939066;29;20083;-89
2024/01/04 07:10:40;;;;;;;2.80;0.98;;;6.10;99.90;;;;;;4941919;29;20035;-90
2024/01/04 07:13:07;;;;;;;0.52;0.32;;;6.10;99.90;;;;;;4955872;28;20130;-87
2024/01/04 07:15:33;;;;;;;3.33;0.50;;;6.10;99.90;;;;;;4941195;29;20492;-88
2024/01/04 07:17:59;;;;;;;0.90;0.38;;;6.10;99.90;;;;;;4942146;28;20035;-88
2024/01/04 07:20:25;;;;;;;1.83;0.40;;;6.10;99.90;;;;;;4910124;29;20039;-89
2024/01/04 07:22:52;;;;;;;1.67;0.40;;;6.10;99.90;;;;;;4940184;29;20035;-89
2024/01/04 07:25:22;;;;;;;0.75;0.50;;;6.10;99.90;;;;;;4938793;28;20498;-89
2024/01/04 07:27:48;;;;;;;1.70;0.40;;;6.10;99.90;;;;;;4925161;29;20050;-90
2024/01/04 07:30:14;;;;;;;0.75;0.30;;;6.10;99.90;;;;;;4942143;28;20395;-89
2024/01/04 07:32:39;;;;;;;1.38;0.40;;;6.10;99.90;;;;;;4923398;29;20042;-89
2024/01/04 07:35:06;;;;;;;1.77;0.43;;;6.10;99.90;;;;;;4921292;28;20035;-89
2024/01/04 07:37:32;;;;;;;1.85;0.40;;;6.20;99.90;;;;;;4922957;29;20094;-89
2024/01/04 07:39:57;;;;;;;0.50;0.35;;;6.10;99.90;;;;;;4923738;28;20035;-90
2024/01/04 07:42:23;;;;;;;1.55;0.30;;;6.20;99.90;;;;;;4938910;28;20027;-88
2024/01/04 07:44:49;;;;;;;3.60;0.40;;;6.20;99.90;;;;;;4907220;29;20074;-90
2024/01/04 07:47:15;;;;;;;1.10;0.40;;;6.20;99.90;;;;;;4923303;29;20035;-89
2024/01/04 07:49:41;;;;;;;3.30;0.63;;;6.20;99.90;;;;;;4936872;29;20031;-89
2024/01/04 07:52:07;;;;;;;0.30;0.20;;;6.20;99.90;;;;;;4908024;28;20046;-88
2024/01/04 07:54:33;;;;;;;0.30;0.30;;;6.20;99.90;;;;;;4922026;29;20141;-90
2024/01/04 07:57:00;;;;;;;0.30;0.30;;;6.20;99.90;;;;;;4923032;28;20754;-90
2024/01/04 07:59:27;;;;;;;0.25;0.25;;;6.20;99.90;;;;;;4933030;29;20039;-89
2024/01/04 08:01:52;;;;;;;0.52;0.30;;;6.20;99.90;;;;;;4927562;29;20050;-91
2024/01/04 08:04:18;;;;;;;0.30;0.28;;;6.20;99.90;;;;;;4956381;28;20035;-88
2024/01/04 08:06:44;;;;;;;1.30;0.32;;;6.20;99.90;;;;;;4939862;29;20031;-91
2024/01/04 08:09:11;;;;;;;0.30;0.30;;;6.20;99.90;;;;;;4953502;28;20027;-89
2024/01/04 08:11:38;;;;;;;1.30;0.20;;;6.20;99.90;;;;;;4938731;29;20023;-90
2024/01/04 08:14:04;;;;;;;0.43;0.20;;;6.20;99.90;;;;;;4938210;28;20053;-89
2024/01/04 08:16:30;;;;;;;0.85;0.30;;;6.20;99.90;;;;;;4929402;29;20476;-90
2024/01/04 08:18:56;;;;;;;5.47;0.70;;;6.20;99.90;;;;;;4938565;28;20046;-89
2024/01/04 08:21:22;;;;;;;1.58;0.40;;;6.20;99.90;;;;;;4956896;28;20038;-90
2024/01/04 08:23:53;;;;;;;1.13;0.35;;;6.20;99.90;;;;;;4953955;28;20034;-90
2024/01/04 08:26:19;;;;;;;0.73;0.30;;;6.20;99.90;;;;;;4939047;28;20025;-88
2024/01/04 08:28:44;;;;;;;0.80;0.30;;;6.20;99.90;;;;;;4939011;28;20027;-87
2024/01/04 08:31:11;;;;;;;1.65;0.40;;;6.20;99.90;;;;;;4923533;28;20027;-89
2024/01/04 08:33:37;;;;;;;1.42;0.50;;;6.20;99.90;;;;;;4939386;29;20046;-90
2024/01/04 08:36:04;;;;;;;0.70;0.30;;;6.20;99.90;;;;;;4954968;28;20120;-88
2024/01/04 08:38:30;;;;;;;0.52;0.28;;;6.10;99.90;;;;;;4929257;29;20447;-90
2024/01/04 08:40:56;;;;;;;0.88;0.30;;;6.10;99.90;;;;;;4939712;29;20400;-88
2024/01/04 08:43:22;;;;;;;0.15;0.15;;;6.10;99.90;;;;;;4927972;28;20036;-89
2024/01/04 08:45:49;;;;;;;0.22;0.10;;;6.10;99.90;;;;;;4922561;29;20035;-88
2024/01/04 08:48:18;;;;;;;6.03;0.30;;;6.00;99.90;;;;;;4955589;28;20599;-88
2024/01/04 08:50:44;;;;;;;29.65;1.65;;;6.00;99.90;;;;;;4942232;28;20031;-89
2024/01/04 08:53:12;;;;;;;0.30;0.30;;;6.00;99.90;;;;;;4951948;28;20035;-92
2024/01/04 08:55:38;;;;;;;1.88;0.30;;;6.00;99.90;;;;;;4921976;29;20538;-88
2024/01/04 08:58:04;;;;;;;22.70;1.65;;;6.00;99.90;;;;;;4954962;28;20035;-87
2024/01/04 09:00:34;;;;;;;0.55;0.30;;;6.10;99.90;;;;;;4942340;28;20502;-86
2024/01/04 09:02:59;;;;;;;19.65;1.50;;;6.10;99.90;;;;;;4919060;29;20771;-88
2024/01/04 09:05:25;;;;;;;8.40;0.73;;;6.10;99.90;;;;;;4953225;28;20031;-90
2024/01/04 09:07:53;;;;;;;1.60;0.20;;;6.10;99.90;;;;;;4939506;28;20035;-91
2024/01/04 09:10:18;;;;;;;0.35;0.35;;;6.20;99.90;;;;;;4939607;28;20533;-91
2024/01/04 09:12:46;;;;;;;1.52;0.40;;;6.20;99.90;;;;;;4939811;29;20027;-88
2024/01/04 09:15:13;;;;;;;1.08;0.28;;;6.20;99.90;;;;;;4921238;28;20047;-89
2024/01/04 09:17:42;;;;;;;2.75;0.32;;;6.30;99.90;;;;;;4937948;28;20612;-89
2024/01/04 09:20:09;;;;;;;2.03;0.30;;;6.30;99.90;;;;;;4938225;28;20673;-90
2024/01/04 09:22:35;;;;;;;0.43;0.30;;;6.30;99.90;;;;;;4920844;29;20122;-89
2024/01/04 09:25:03;;;;;;;0.30;0.30;;;6.30;99.90;;;;;;4934594;28;21593;-89
2024/01/04 09:27:28;;;;;;;11.73;0.95;;;6.30;99.90;;;;;;4935152;29;20042;-88
2024/01/04 09:29:55;;;;;;;4.60;0.60;;;6.40;99.90;;;;;;4920034;29;20043;-87
2024/01/04 09:32:20;;;;;;;1.75;0.40;;;6.40;99.90;;;;;;4939268;28;20533;-88
2024/01/04 09:34:46;;;;;;;1.05;0.47;;;6.40;99.90;;;;;;4949398;28;20035;-88
2024/01/04 09:37:12;;;;;;;1.50;0.50;;;6.40;99.90;;;;;;4922236;28;20495;-89
2024/01/04 09:39:40;;;;;;;1.15;0.50;;;6.40;99.90;;;;;;4936888;29;20067;-90
2024/01/04 09:42:09;;;;;;;6.90;0.63;;;6.40;99.90;;;;;;4935732;28;20035;-89
2024/01/04 09:44:35;;;;;;;2.03;1.02;;;6.40;99.90;;;;;;4930583;28;20130;-90
2024/01/04 09:47:10;;;;;;;1.65;0.50;;;6.40;99.90;;;;;;4935160;28;20032;-89
2024/01/04 09:49:39;;;;;;;1.85;0.32;;;6.40;99.90;;;;;;4937787;28;20443;-90
2024/01/04 09:52:05;;;;;;;3.05;0.30;;;6.40;99.90;;;;;;4937077;28;20082;-89
2024/01/04 09:54:32;;;;;;;1.60;0.40;;;6.40;99.90;;;;;;4938756;29;20030;-89
2024/01/04 09:56:59;;;;;;;1.85;0.30;;;6.40;99.90;;;;;;4951075;28;20086;-88
2024/01/04 09:59:25;;;;;;;1.17;0.40;;;6.50;99.90;;;;;;4921917;28;20667;-90
2024/01/04 10:01:52;;;;;;;2.90;0.30;;;6.50;99.90;;;;;;4922603;29;20031;-88
2024/01/04 10:04:19;;;;;;;1.10;0.40;;;6.60;99.90;;;;;;4935557;28;20042;-88
2024/01/04 10:06:46;;;;;;;4.13;0.40;;;6.60;99.90;;;;;;4936026;29;20108;-90
2024/01/04 10:09:25;;;;;;;32.92;2.20;;;6.60;99.90;;;;;;4936856;28;20039;-89
2024/01/04 10:11:57;;;;;;;0.30;0.30;;;6.70;99.90;;;;;;4937104;29;20471;-90
2024/01/04 10:14:24;;;;;;;8.43;0.88;;;6.80;99.90;;;;;;4934201;28;20039;-89
2024/01/04 10:16:51;;;;;;;0.73;0.40;;;6.80;99.90;;;;;;4921800;29;20070;-90
2024/01/04 10:19:17;;;;;;;0.45;0.35;;;6.80;99.90;;;;;;4944463;28;20038;-90
2024/01/04 10:21:43;;;;;;;1.48;0.40;;;6.80;99.90;;;;;;4923500;28;20046;-90
2024/01/04 10:24:13;;;;;;;0.95;0.40;;;6.80;99.90;;;;;;4917143;28;20035;-89
2024/01/04 10:26:41;;;;;;;0.60;0.40;;;6.70;99.90;;;;;;4953403;28;20042;-89
2024/01/04 10:29:07;;;;;;;0.45;0.40;;;6.70;99.90;;;;;;4934975;28;20110;-89
2024/01/04 10:31:34;;;;;;;2.95;0.30;;;6.80;99.90;;;;;;4939630;28;20126;-89
2024/01/04 10:34:00;;;;;;;0.65;0.35;;;6.70;99.90;;;;;;4940211;28;20039;-90
2024/01/04 10:36:32;;;;;;;3.17;0.88;;;6.70;99.90;;;;;;4919658;28;20030;-90
2024/01/04 10:39:08;;;;;;;0.60;0.30;;;6.70;99.90;;;;;;4921844;28;20098;-90
2024/01/04 10:41:33;;;;;;;;;;;6.60;99.90;;;;;;4937123;29;20058;-90
2024/01/04 10:44:06;;;;;;;1.48;0.38;;;6.60;99.90;;;;;;4920827;28;19949;-89
2024/01/04 10:46:36;;;;;;;0.70;0.30;;;6.60;99.90;;;;;;4945168;28;20123;-89
2024/01/04 10:49:02;;;;;;;0.50;0.30;;;6.60;99.90;;;;;;4936569;29;20027;-89
2024/01/04 10:51:32;;;;;;;1.52;0.35;;;6.60;99.90;;;;;;4921651;29;20027;-90
2024/01/04 10:54:02;;;;;;;0.50;0.38;;;6.60;99.90;;;;;;4919210;29;20037;-89
2024/01/04 10:56:35;;;;;;;0.32;0.28;;;6.60;99.90;;;;;;4950135;28;20039;-89
2024/01/04 10:59:03;;;;;;;2.70;0.30;;;6.60;99.90;;;;;;4951716;28;20039;-90
2024/01/04 11:01:29;;;;;;;0.40;0.40;;;6.70;99.90;;;;;;4935072;28;20058;-89
2024/01/04 11:03:56;;;;;;;1.65;0.30;;;6.70;99.90;;;;;;4934369;29;20039;-89
2024/01/04 11:06:26;;;;;;;0.93;0.73;;;6.60;99.90;;;;;;4920965;28;20110;-88
2024/01/04 11:08:56;;;;;;;1.55;0.38;;;6.70;99.90;;;;;;4919250;29;20031;-89
2024/01/04 11:11:24;;;;;;;1.75;0.30;;;6.60;99.90;;;;;;4937313;28;20062;-89
2024/01/04 11:13:50;;;;;;;1.00;0.30;;;6.60;99.90;;;;;;4935742;29;20062;-89
2024/01/04 11:16:50;;;;;;;0.80;0.30;;;6.60;99.90;;;;;;4936824;28;20055;-89
2024/01/04 11:19:47;;;;;;;1.55;0.20;;;6.60;99.90;;;;;;4938902;28;20035;-90
2024/01/04 11:22:32;;;;;;;0.45;0.20;;;6.50;99.90;;;;;;4953379;28;20038;-90
2024/01/04 11:25:25;;;;;;;1.08;0.32;;;6.60;99.90;;;;;;4937232;29;20036;-90
2024/01/04 11:27:51;;;;;;;2.08;0.20;;;6.50;99.90;;;;;;4939663;29;20035;-89
2024/01/04 11:30:18;;;;;;;1.85;0.20;;;6.60;99.90;;;;;;4923249;28;20088;-89
2024/01/04 11:32:44;;;;;;;1.48;0.50;;;6.60;99.90;;;;;;4954155;28;20035;-90
2024/01/04 11:35:11;;;;;;;1.05;0.30;;;6.60;99.90;;;;;;4940301;28;20050;-88
2024/01/04 11:37:37;;;;;;;0.20;0.20;;;6.60;99.90;;;;;;4914534;29;20035;-90
2024/01/04 11:40:07;;;;;;;2.00;0.40;;;6.60;99.90;;;;;;4924970;28;20412;-90
2024/01/04 11:42:38;;;;;;;2.17;0.90;;;6.60;99.90;;;;;;4955337;28;20031;-90
2024/01/04 11:45:06;;;;;;;0.68;0.38;;;6.70;99.90;;;;;;4936147;28;20515;-88
2024/01/04 11:47:37;;;;;;;3.78;0.30;;;6.80;99.90;;;;;;4929766;28;20549;-90
2024/01/04 11:50:16;;;;;;;0.98;0.32;;;6.80;99.90;;;;;;4923015;29;20106;-90
2024/01/04 11:52:43;;;;;;;2.05;0.45;;;6.80;99.90;;;;;;4938420;28;20061;-89
2024/01/04 11:55:09;;;;;;;1.38;0.30;;;6.80;99.90;;;;;;4939743;28;20031;-90
2024/01/04 11:57:35;;;;;;;0.25;0.25;;;6.80;99.90;;;;;;4954422;28;20400;-88
2024/01/04 12:00:14;;;;;;;0.28;0.28;;;6.80;99.90;;;;;;4936647;29;20043;-89
2024/01/04 12:02:41;;;;;;;0.50;0.20;;;6.80;99.90;;;;;;4935711;29;20484;-88
2024/01/04 12:05:07;;;;;;;0.82;0.20;;;6.80;99.90;;;;;;4911579;28;20034;-90
2024/01/04 12:07:36;;;;;;;2.50;0.30;;;6.90;99.90;;;;;;4938748;29;20027;-90
2024/01/04 12:10:02;;;;;;;0.32;0.20;;;6.90;99.90;;;;;;4924773;28;20050;-90
2024/01/04 12:12:29;;;;;;;0.47;0.20;;;6.90;99.90;;;;;;4922708;28;20027;-90
2024/01/04 12:14:55;;;;;;;1.60;0.35;;;6.90;99.90;;;;;;4948647;28;20170;-89
2024/01/04 12:17:20;;;;;;;0.22;0.22;;;6.90;99.90;;;;;;4922116;28;20129;-90
2024/01/04 12:19:48;;;;;;;1.05;0.30;;;7.00;99.90;;;;;;4937769;28;20067;-90
2024/01/04 12:22:14;;;;;;;0.35;0.20;;;7.00;99.90;;;;;;4938163;28;20411;-90
2024/01/04 12:24:42;;;;;;;0.20;0.20;;;7.00;99.90;;;;;;4920927;28;20043;-90
2024/01/04 12:27:08;;;;;;;1.10;0.20;;;7.00;99.90;;;;;;4926518;28;20607;-89
2024/01/04 12:29:34;;;;;;;0.50;0.28;;;7.10;99.90;;;;;;4932269;28;20054;-89
2024/01/04 12:32:08;;;;;;;0.20;0.20;;;7.00;99.90;;;;;;4938593;28;20039;-89
2024/01/04 12:34:34;;;;;;;1.38;0.30;;;7.00;99.90;;;;;;4921373;29;20616;-89
2024/01/04 12:37:06;;;;;;;1.00;0.20;;;7.00;99.90;;;;;;4924547;28;20031;-91
2024/01/04 12:39:35;;;;;;;0.20;0.20;;;7.00;99.90;;;;;;4945120;28;20042;-89
2024/01/04 12:42:02;;;;;;;1.70;0.25;;;6.90;99.90;;;;;;4935960;28;20035;-89
2024/01/04 12:44:28;;;;;;;0.30;0.30;;;6.90;99.90;;;;;;4953862;28;20035;-90
2024/01/04 12:47:04;;;;;;;2.63;0.30;;;6.80;99.90;;;;;;4938695;28;20227;-90
2024/01/04 12:49:30;;;;;;;0.43;0.20;;;6.80;99.90;;;;;;4903872;28;20035;-90
2024/01/04 12:51:56;;;;;;;14.50;0.60;;;6.80;99.90;;;;;;4936019;29;20035;-91
2024/01/04 12:54:22;;;;;;;0.90;0.20;;;6.70;99.90;;;;;;4919017;28;20031;-92
2024/01/04 12:56:52;;;;;;;0.40;0.28;;;6.60;99.90;;;;;;4952495;28;20057;-91